tititudorancea.com
Ararat Weather - Ararat,Victoria,Australia
 
Daily Summary for July 05, 2015 Units:  Metric    English   Both
« Previous Day
Next Day »
Daily Weekly Monthly Yearly Custom
  Current: High: Low: Average:
Temperature: 12.9 °C 12.9 °C 5.1 °C 7.6 °C
Dew Point: 5.3 °C 5.3 °C 1.8 °C 3.3 °C
Humidity: 60% 83% 59% 75%
Wind Speed: 7.2km/h 15.8km/h 0km/h 5.3km/h
Wind Gust: 20.9km/h 28km/h - -
WindNorth - - SE
Pressure: 1013.4 hPa 1015.8 hPa 1013.4 hPa -
Precipitation: 0 mm      
Historical Graphs
 
 
Ararat weather Find more about Weather in Ararat, AU


 




 


Tabular Data for July 05, 2015
Time Temperature Dew Point Pressure Wind Wind Speed Wind Gust Humidity Rainfall Rate (Hourly)
00:01 9 °C 4.8 °C 1015.5 hPa NNE 5 km/h 8.7 km/h 75% 0 mm
00:06 9 °C 5 °C 1015.5 hPa NNE 6.1 km/h 11.1 km/h 76% 0 mm
00:11 8.9 °C 4.7 °C 1015.8 hPa NNE 5 km/h 12.2 km/h 75% 0 mm
00:16 8.8 °C 4.6 °C 1015.5 hPa NNE 3.5 km/h 13.4 km/h 75% 0 mm
00:21 8.7 °C 4.6 °C 1015.5 hPa North 5 km/h 13.4 km/h 75% 0 mm
00:26 8.7 °C 4.6 °C 1015.5 hPa North 2.6 km/h 11.1 km/h 75% 0 mm
00:31 8.6 °C 4.4 °C 1015.5 hPa North 5 km/h 9.7 km/h 75% 0 mm
00:36 8.5 °C 4.3 °C 1015.5 hPa North 3.5 km/h 12.2 km/h 75% 0 mm
00:41 8.4 °C 4.3 °C 1015.5 hPa North 3.5 km/h 12.2 km/h 75% 0 mm
00:46 8.3 °C 4.2 °C 1015.5 hPa North 5 km/h 12.2 km/h 75% 0 mm
00:51 8.2 °C 4.1 °C 1015.5 hPa NNW 6.1 km/h 11.1 km/h 75% 0 mm
00:56 8.1 °C 3.9 °C 1015.5 hPa NNW 1.1 km/h 11.1 km/h 75% 0 mm
01:01 7.9 °C 3.6 °C 1015.5 hPa NNW 5 km/h 11.1 km/h 74% 0 mm
01:06 7.8 °C 3.5 °C 1015.5 hPa NNW 6.1 km/h 11.1 km/h 74% 0 mm
01:11 7.7 °C 3.3 °C 1015.5 hPa North 3.5 km/h 13.4 km/h 74% 0 mm
01:16 7.6 °C 3.4 °C 1015.5 hPa North 2.6 km/h 13.4 km/h 75% 0 mm
01:21 7.4 °C 3.3 °C 1015.5 hPa NNW 3.5 km/h 8.7 km/h 75% 0 mm
01:26 7.3 °C 3.2 °C 1015.5 hPa North 2.6 km/h 7.2 km/h 75% 0 mm
01:31 7.3 °C 3.2 °C 1015.5 hPa NNE 2.6 km/h 8.7 km/h 75% 0 mm
01:36 7.3 °C 3.3 °C 1015.5 hPa NNE 6.1 km/h 13.4 km/h 76% 0 mm
01:46 7.3 °C 3.3 °C 1015.5 hPa North 3.5 km/h 15.8 km/h 76% 0 mm
01:51 7.2 °C 3.2 °C 1015.1 hPa North 3.5 km/h 12.2 km/h 76% 0 mm
01:56 7.2 °C 3.2 °C 1015.1 hPa NNE 3.5 km/h 11.1 km/h 76% 0 mm
02:01 7.1 °C 3.1 °C 1015.1 hPa NE 3.5 km/h 11.1 km/h 76% 0 mm
02:06 6.9 °C 3 °C 1014.8 hPa NE 2.6 km/h 9.7 km/h 76% 0 mm
02:11 6.9 °C 3 °C 1015.1 hPa North 3.5 km/h 9.7 km/h 76% 0 mm
02:16 6.9 °C 3 °C 1015.1 hPa NNE 2.6 km/h 12.2 km/h 76% 0 mm
02:21 6.9 °C 3 °C 1015.1 hPa NNE 3.5 km/h 12.2 km/h 76% 0 mm
02:27 6.9 °C 3.2 °C 1015.1 hPa North 5 km/h 11.1 km/h 77% 0 mm
02:32 7.1 °C 3.3 °C 1015.1 hPa NNE 6.1 km/h 11.1 km/h 77% 0 mm
02:37 7.1 °C 3.3 °C 1014.8 hPa NE 7.2 km/h 13.4 km/h 77% 0 mm
02:42 7.1 °C 3.3 °C 1015.1 hPa NNE 3.5 km/h 17.2 km/h 77% 0 mm
02:47 7.2 °C 3.4 °C 1015.1 hPa NNE 5 km/h 17.2 km/h 77% 0 mm
02:52 7.2 °C 3.4 °C 1015.1 hPa North 3.5 km/h 12.2 km/h 77% 0 mm
02:57 7.2 °C 3.4 °C 1015.1 hPa North 7.2 km/h 13.4 km/h 77% 0 mm
03:02 7.2 °C 3.4 °C 1014.8 hPa NNE 5 km/h 13.4 km/h 77% 0 mm
03:07 7.1 °C 3.3 °C 1014.8 hPa NNE 6.1 km/h 13.4 km/h 77% 0 mm
03:12 7.1 °C 3.3 °C 1014.8 hPa NNE 8.7 km/h 14.8 km/h 77% 0 mm
03:17 7.1 °C 3.3 °C 1014.8 hPa NNE 6.1 km/h 14.8 km/h 77% 0 mm
03:22 6.9 °C 3.2 °C 1014.4 hPa NNE 9.7 km/h 15.8 km/h 77% 0 mm
03:27 6.9 °C 3.2 °C 1014.8 hPa NNE 5 km/h 15.8 km/h 77% 0 mm
03:32 6.8 °C 3.1 °C 1014.4 hPa NNE 3.5 km/h 15.8 km/h 77% 0 mm
03:37 6.8 °C 3 °C 1014.4 hPa NNE 3.5 km/h 9.7 km/h 77% 0 mm
03:42 6.8 °C 3 °C 1014.4 hPa NNE 3.5 km/h 9.7 km/h 77% 0 mm
03:47 6.7 °C 2.9 °C 1014.1 hPa NNE 3.5 km/h 9.7 km/h 77% 0 mm
03:52 6.6 °C 2.8 °C 1014.1 hPa NNE 5 km/h 11.1 km/h 77% 0 mm
03:57 6.4 °C 2.7 °C 1014.4 hPa North 5 km/h 13.4 km/h 77% 0 mm
04:02 6.4 °C 2.7 °C 1014.4 hPa NNW 7.2 km/h 14.8 km/h 77% 0 mm
04:07 6.4 °C 2.8 °C 1014.1 hPa NNW 6.1 km/h 14.8 km/h 78% 0 mm
04:12 6.3 °C 2.7 °C 1014.4 hPa NNW 3.5 km/h 13.4 km/h 78% 0 mm
04:17 6.3 °C 2.7 °C 1014.1 hPa North 5 km/h 12.2 km/h 78% 0 mm
04:22 6.2 °C 2.6 °C 1014.1 hPa North 6.1 km/h 15.8 km/h 78% 0 mm
04:27 6.1 °C 2.6 °C 1014.1 hPa NNW 5 km/h 15.8 km/h 78% 0 mm
04:32 6.1 °C 2.6 °C 1014.1 hPa North 6.1 km/h 13.4 km/h 78% 0 mm
04:37 6 °C 2.4 °C 1014.1 hPa NNE 6.1 km/h 12.2 km/h 78% 0 mm
04:42 6 °C 2.6 °C 1014.1 hPa NE 9.7 km/h 12.2 km/h 79% 0 mm
04:47 6 °C 2.4 °C 1014.1 hPa NE 7.2 km/h 13.4 km/h 78% 0 mm
04:52 6 °C 2.4 °C 1014.1 hPa NNE 8.7 km/h 13.4 km/h 78% 0 mm
04:58 6 °C 2.4 °C 1014.4 hPa NNE 3.5 km/h 12.2 km/h 78% 0 mm
05:03 5.9 °C 2.3 °C 1014.1 hPa NNE 5 km/h 12.2 km/h 78% 0 mm
05:08 5.9 °C 2.3 °C 1014.4 hPa NNE 2.6 km/h 12.2 km/h 78% 0 mm
05:13 5.8 °C 2.2 °C 1014.1 hPa North 3.5 km/h 12.2 km/h 78% 0 mm
05:18 5.7 °C 2.2 °C 1014.1 hPa NNW 2.6 km/h 9.7 km/h 78% 0 mm
05:23 5.6 °C 2.1 °C 1014.4 hPa NNW 5 km/h 11.1 km/h 78% 0 mm
05:28 5.5 °C 1.9 °C 1014.4 hPa NNW 5 km/h 11.1 km/h 78% 0 mm
05:33 5.5 °C 1.9 °C 1014.4 hPa NNW 2.6 km/h 13.4 km/h 78% 0 mm
05:38 5.4 °C 1.9 °C 1014.4 hPa North 3.5 km/h 13.4 km/h 78% 0 mm
05:43 5.4 °C 2.1 °C 1014.4 hPa North 1.1 km/h 11.1 km/h 79% 0 mm
05:48 5.4 °C 2.1 °C 1014.4 hPa Calm   8.7 km/h 79% 0 mm
05:53 5.4 °C 2.1 °C 1014.8 hPa North 2.6 km/h 7.2 km/h 79% 0 mm
05:58 5.4 °C 2.1 °C 1014.4 hPa North 2.6 km/h 8.7 km/h 79% 0 mm
06:03 5.5 °C 2.2 °C 1014.4 hPa North 5 km/h 12.2 km/h 79% 0 mm
06:08 5.5 °C 2.2 °C 1014.4 hPa NNE 3.5 km/h 12.2 km/h 79% 0 mm
06:13 5.6 °C 2.2 °C 1014.4 hPa North 2.6 km/h 9.7 km/h 79% 0 mm
06:18 5.6 °C 2.2 °C 1014.4 hPa North 5 km/h 12.2 km/h 79% 0 mm
06:23 5.6 °C 2.2 °C 1014.4 hPa North 2.6 km/h 12.2 km/h 79% 0 mm
06:28 5.6 °C 2.2 °C 1014.4 hPa NNE 3.5 km/h 12.2 km/h 79% 0 mm
06:33 5.6 °C 2.2 °C 1014.8 hPa North 3.5 km/h 12.2 km/h 79% 0 mm
06:38 5.5 °C 2.2 °C 1014.4 hPa NNW 3.5 km/h 12.2 km/h 79% 0 mm
06:43 5.5 °C 2.2 °C 1014.4 hPa North 2.6 km/h 12.2 km/h 79% 0 mm
06:48 5.4 °C 2.1 °C 1014.4 hPa NNE 3.5 km/h 12.2 km/h 79% 0 mm
06:53 5.4 °C 2.1 °C 1014.4 hPa North 5 km/h 11.1 km/h 79% 0 mm
06:58 5.3 °C 1.9 °C 1014.4 hPa North 7.2 km/h 12.2 km/h 79% 0 mm
07:03 5.2 °C 1.8 °C 1014.8 hPa North 5 km/h 12.2 km/h 79% 0 mm
07:09 5.3 °C 2.1 °C 1014.8 hPa North 6.1 km/h 12.2 km/h 80% 0 mm
07:14 5.3 °C 2.1 °C 1014.8 hPa North 2.6 km/h 13.4 km/h 80% 0 mm
07:19 5.2 °C 2.1 °C 1014.8 hPa North 3.5 km/h 13.4 km/h 80% 0 mm
07:24 5.2 °C 2.1 °C 1014.8 hPa NE 5 km/h 9.7 km/h 80% 0 mm
07:29 5.2 °C 2.1 °C 1014.4 hPa NE 5 km/h 11.1 km/h 80% 0 mm
07:34 5.2 °C 2.1 °C 1014.4 hPa NE 3.5 km/h 11.1 km/h 80% 0 mm
07:39 5.2 °C 2.1 °C 1014.4 hPa NNE 5 km/h 11.1 km/h 80% 0 mm
07:44 5.2 °C 2.1 °C 1014.4 hPa NNE 3.5 km/h 12.2 km/h 80% 0 mm
07:49 5.2 °C 2.1 °C 1014.8 hPa NNE 5 km/h 12.2 km/h 80% 0 mm
07:54 5.2 °C 2.1 °C 1014.8 hPa NNE 2.6 km/h 8.7 km/h 80% 0 mm
07:59 5.1 °C 1.9 °C 1014.4 hPa NNE 3.5 km/h 9.7 km/h 80% 0 mm
08:04 5.2 °C 2.1 °C 1014.8 hPa NNE 5 km/h 12.2 km/h 80% 0 mm
08:09 5.2 °C 2.1 °C 1014.4 hPa NNE 3.5 km/h 12.2 km/h 80% 0 mm
08:14 5.2 °C 2.1 °C 1014.4 hPa North 3.5 km/h 9.7 km/h 80% 0 mm
08:19 5.3 °C 2.1 °C 1014.8 hPa Calm   9.7 km/h 80% 0 mm
08:24 5.3 °C 2.1 °C 1014.8 hPa NNW 1.1 km/h 7.2 km/h 80% 0 mm
08:29 5.4 °C 2.2 °C 1014.8 hPa NNW 2.6 km/h 5 km/h 80% 0 mm
08:34 5.7 °C 2.7 °C 1014.8 hPa NNW 1.1 km/h 6.1 km/h 81% 0 mm
08:39 6 °C 3.2 °C 1014.4 hPa North 2.6 km/h 9.7 km/h 82% 0 mm
08:44 6.3 °C 3.4 °C 1014.4 hPa North 2.6 km/h 9.7 km/h 82% 0 mm
08:49 6.7 °C 4 °C 1014.4 hPa North 2.6 km/h 11.1 km/h 83% 0 mm
08:54 6.8 °C 4 °C 1014.8 hPa NNE 5 km/h 11.1 km/h 82% 0 mm
08:59 7.1 °C 4 °C 1014.4 hPa NNE 6.1 km/h 11.1 km/h 81% 0 mm
09:04 7.1 °C 3.8 °C 1014.4 hPa NNE 2.6 km/h 13.4 km/h 80% 0 mm
09:10 7.2 °C 3.8 °C 1014.8 hPa NNE 7.2 km/h 13.4 km/h 79% 0 mm
09:15 7.3 °C 3.7 °C 1014.8 hPa NNE 7.2 km/h 12.2 km/h 78% 0 mm
09:20 7.3 °C 3.6 °C 1014.8 hPa NNE 5 km/h 15.8 km/h 77% 0 mm
09:25 7.4 °C 3.5 °C 1014.8 hPa NNE 3.5 km/h 15.8 km/h 76% 0 mm
09:30 7.6 °C 3.6 °C 1014.8 hPa North 5 km/h 17.2 km/h 76% 0 mm
09:40 8.1 °C 4.2 °C 1014.4 hPa North 7.2 km/h 14.8 km/h 76% 0 mm
09:45 8.4 °C 4.1 °C 1014.4 hPa North 9.7 km/h 25.6 km/h 74% 0 mm
09:50 8.6 °C 4.1 °C 1014.4 hPa North 6.1 km/h 25.6 km/h 73% 0 mm
09:55 8.7 °C 3.9 °C 1014.4 hPa North 7.2 km/h 20.9 km/h 72% 0 mm
10:00 8.8 °C 4.1 °C 1014.8 hPa NNE 8.7 km/h 21.9 km/h 72% 0 mm
10:05 9.2 °C 4.4 °C 1014.8 hPa NNE 11.1 km/h 21.9 km/h 72% 0 mm
10:10 9.4 °C 4.2 °C 1014.4 hPa NNE 13.4 km/h 23.3 km/h 70% 0 mm
10:15 9.6 °C 4.4 °C 1014.8 hPa NE 7.2 km/h 23.3 km/h 70% 0 mm
10:20 9.8 °C 4.4 °C 1014.8 hPa NNE 6.1 km/h 19.5 km/h 69% 0 mm
10:25 10.1 °C 4.7 °C 1014.4 hPa NNE 2.6 km/h 19.5 km/h 69% 0 mm
10:30 10.3 °C 4.7 °C 1014.4 hPa NNE 7.2 km/h 20.9 km/h 68% 0 mm
10:35 10.3 °C 4.4 °C 1014.4 hPa North 5 km/h 20.9 km/h 67% 0 mm
10:40 10.6 °C 4.3 °C 1014.8 hPa NNW 8.7 km/h 15.8 km/h 65% 0 mm
10:45 10.7 °C 4.4 °C 1014.4 hPa NNW 13.4 km/h 24.5 km/h 65% 0 mm
10:50 10.8 °C 4.2 °C 1014.4 hPa North 9.7 km/h 24.5 km/h 64% 0 mm
10:55 10.9 °C 4.6 °C 1014.8 hPa NNE 5 km/h 24.5 km/h 65% 0 mm
11:00 11.1 °C 4.5 °C 1014.4 hPa NNE 12.2 km/h 21.9 km/h 64% 0 mm
11:05 11 °C 4.2 °C 1014.1 hPa North 8.7 km/h 23.3 km/h 63% 0 mm
11:10 11.2 °C 4.6 °C 1014.1 hPa North 6.1 km/h 23.3 km/h 64% 0 mm
11:15 11.4 °C 4.8 °C 1014.1 hPa North 6.1 km/h 23.3 km/h 64% 0 mm
11:20 11.6 °C 4.8 °C 1014.1 hPa NNE 9.7 km/h 24.5 km/h 63% 0 mm
11:25 11.7 °C 4.8 °C 1014.1 hPa North 8.7 km/h 24.5 km/h 63% 0 mm
11:30 11.8 °C 5.2 °C 1014.1 hPa North 7.2 km/h 20.9 km/h 64% 0 mm
11:35 12.1 °C 5.2 °C 1014.1 hPa NNW 6.1 km/h 19.5 km/h 63% 0 mm
11:40 12.2 °C 5.1 °C 1013.8 hPa NNW 7.2 km/h 21.9 km/h 62% 0 mm
11:45 12.2 °C 4.8 °C 1013.8 hPa North 13.4 km/h 21.9 km/h 61% 0 mm
11:50 12.2 °C 5.2 °C 1014.1 hPa North 5 km/h 20.9 km/h 62% 0 mm
11:55 12.2 °C 4.9 °C 1013.8 hPa North 8.7 km/h 20.9 km/h 61% 0 mm
12:00 12.3 °C 5.1 °C 1013.8 hPa North 9.7 km/h 20.9 km/h 61% 0 mm
12:05 12.6 °C 5.2 °C 1013.8 hPa North 9.7 km/h 19.5 km/h 61% 0 mm
12:10 12.7 °C 5.1 °C 1013.4 hPa NNE 15.8 km/h 27 km/h 60% 0 mm
12:15 12.7 °C 5.1 °C 1013.8 hPa NNE 7.2 km/h 27 km/h 60% 0 mm
12:20 12.6 °C 4.8 °C 1013.8 hPa North 9.7 km/h 28 km/h 59% 0 mm
12:25 12.7 °C 5.1 °C 1013.8 hPa North 8.7 km/h 28 km/h 60% 0 mm
12:30 12.7 °C 5.2 °C 1013.4 hPa North 8.7 km/h 23.3 km/h 60% 0 mm
12:35 12.9 °C 5.3 °C 1013.4 hPa North 7.2 km/h 20.9 km/h 60% 0 mm
www.araratweather.com - Email: contact at araratweather.com
Data created with Cumulus & bmak
Click here to send mail.


ABOUT

Live weather data from Ararat, Victoria, Australia, 3377
Data uploaded from Cumulus every 5 minutes to Weather Underground.
This site then downloads the raw data for formatting and display.
Metric and imperial data can be displayed. Graphs and historical data available.
Includes Sun and Moon times and rain image live from BOM.

Check out Ararat Weather on Facebook, Twitter and Google +

Help support ongoing costs by checking out the ads





Follow @AraratWeather